createdAt,value
2023-12-12T00:02:02.543Z,7.95
2023-12-12T00:07:08.169Z,5.07
2023-12-12T00:12:12.341Z,3.47
2023-12-12T00:17:16.614Z,2.83
2023-12-12T00:22:22.178Z,5.50
2023-12-12T00:27:26.334Z,7.85
2023-12-12T00:32:30.763Z,8.85
2023-12-12T00:37:36.618Z,6.75
2023-12-12T00:42:41.249Z,2.55
2023-12-12T00:47:46.208Z,4.07
2023-12-12T00:52:51.962Z,7.65
2023-12-12T00:57:56.076Z,9.68
2023-12-12T01:03:00.437Z,7.07
2023-12-12T01:08:06.237Z,4.25
2023-12-12T01:13:10.401Z,5.95
2023-12-12T01:18:14.657Z,8.40
2023-12-12T01:23:20.450Z,3.28
2023-12-12T01:28:24.562Z,4.10
2023-12-12T01:33:29.124Z,4.03
2023-12-12T01:38:34.968Z,6.07
2023-12-12T01:43:39.225Z,4.55
2023-12-12T01:48:43.799Z,4.75
2023-12-12T01:53:52.398Z,2.80
2023-12-12T01:58:57.299Z,4.63
2023-12-12T02:04:03.306Z,5.97
2023-12-12T02:09:09.498Z,3.67
2023-12-12T02:14:13.815Z,2.33
2023-12-12T02:19:19.483Z,5.25
2023-12-12T02:24:25.019Z,1.52
2023-12-12T02:29:29.361Z,1.63
2023-12-12T02:34:33.523Z,0.85
2023-12-12T02:39:39.584Z,3.20
2023-12-12T02:44:43.674Z,8.63
2023-12-12T02:49:47.852Z,3.25
2023-12-12T02:54:53.460Z,4.07
2023-12-12T02:59:57.669Z,5.25
2023-12-12T03:05:02.138Z,1.17
2023-12-12T03:10:09.265Z,5.18
2023-12-12T03:15:14.752Z,3.72
2023-12-12T03:20:18.900Z,2.15
2023-12-12T03:25:24.458Z,6.30
2023-12-12T03:30:28.582Z,4.22
2023-12-12T03:35:32.617Z,6.55
2023-12-12T03:40:38.317Z,0.82
2023-12-12T03:45:42.736Z,4.43
2023-12-12T03:50:46.985Z,6.47
2023-12-12T03:55:52.457Z,2.15
2023-12-12T04:00:56.733Z,5.63
2023-12-12T04:06:03.060Z,5.90
2023-12-12T04:11:08.909Z,4.57
2023-12-12T04:16:13.027Z,0.73
2023-12-12T04:21:17.393Z,4.90
2023-12-12T04:26:23.029Z,5.82
2023-12-12T04:31:27.373Z,5.70
2023-12-12T04:36:31.497Z,5.55
2023-12-12T04:41:41.876Z,4.32
2023-12-12T04:46:46.468Z,4.05
2023-12-12T04:51:50.638Z,4.72
2023-12-12T04:56:56.540Z,4.30
2023-12-12T05:02:01.173Z,7.35
2023-12-12T05:07:05.607Z,3.75
2023-12-12T05:12:11.959Z,2.90
2023-12-12T05:17:16.383Z,10.38
2023-12-12T05:22:28.643Z,6.13
2023-12-12T05:27:33.353Z,2.78
2023-12-12T05:32:38.011Z,9.70
2023-12-12T05:37:43.670Z,7.00
2023-12-12T05:42:47.783Z,3.97
2023-12-12T05:47:52.047Z,5.22
2023-12-12T05:52:57.565Z,6.80
2023-12-12T05:58:01.902Z,4.65
2023-12-12T06:03:06.096Z,4.20
2023-12-12T06:08:12.766Z,10.95
2023-12-12T06:13:17.058Z,6.55
2023-12-12T06:18:20.924Z,6.90
2023-12-12T06:23:26.101Z,8.68
2023-12-12T06:28:30.154Z,6.70
2023-12-12T06:33:34.382Z,10.48
2023-12-12T06:38:39.598Z,5.82
2023-12-12T06:43:44.755Z,6.75
2023-12-12T06:48:50.443Z,8.65
2023-12-12T06:53:56.232Z,7.13
2023-12-12T06:59:00.287Z,10.85
2023-12-12T07:04:04.474Z,9.00
2023-12-12T07:09:11.999Z,15.65
2023-12-12T07:14:16.170Z,8.70
2023-12-12T07:19:20.383Z,7.60
2023-12-12T07:24:26.118Z,13.85
2023-12-12T07:29:30.160Z,6.82
2023-12-12T07:34:35.491Z,11.15
2023-12-12T07:39:40.736Z,11.95
2023-12-12T07:44:44.609Z,9.07
2023-12-12T07:49:48.986Z,21.25
2023-12-12T07:54:54.338Z,8.88
2023-12-12T07:59:58.646Z,8.68
2023-12-12T08:05:02.698Z,10.00
2023-12-12T08:10:11.930Z,9.38
2023-12-12T08:15:16.056Z,8.20
2023-12-12T08:20:20.754Z,8.05
2023-12-12T08:25:26.237Z,8.68
2023-12-12T08:30:31.966Z,8.15
2023-12-12T08:35:37.266Z,7.47
2023-12-12T08:40:43.003Z,10.20
2023-12-12T08:45:47.610Z,6.55
2023-12-12T08:50:51.813Z,14.13
2023-12-12T08:55:57.858Z,9.98
2023-12-12T09:01:02.003Z,10.85
2023-12-12T09:06:06.677Z,5.60
2023-12-12T09:11:14.739Z,7.63
2023-12-12T09:16:19.643Z,8.50
2023-12-12T09:21:24.088Z,8.23
2023-12-12T09:26:29.346Z,8.57
2023-12-12T09:31:33.972Z,9.77
2023-12-12T09:36:38.084Z,7.45
2023-12-12T09:41:47.632Z,12.63
2023-12-12T09:46:52.225Z,5.25
2023-12-12T09:51:58.177Z,6.53
2023-12-12T09:57:15.725Z,5.55
2023-12-12T10:02:24.969Z,6.18
2023-12-12T10:07:30.271Z,9.90
2023-12-12T10:12:36.430Z,6.38
2023-12-12T10:17:41.227Z,11.82
2023-12-12T10:22:45.898Z,6.32
2023-12-12T10:27:54.398Z,5.88
2023-12-12T10:32:58.755Z,8.43
2023-12-12T10:38:10.002Z,8.40
2023-12-12T10:43:16.267Z,5.88
2023-12-12T10:48:23.478Z,4.57
2023-12-12T10:53:29.103Z,5.65
2023-12-12T10:58:36.902Z,7.43
2023-12-12T11:03:42.050Z,4.55
2023-12-12T11:08:48.056Z,4.93
2023-12-12T11:13:54.922Z,4.95
2023-12-12T11:19:01.386Z,6.57
2023-12-12T11:24:06.495Z,6.90
2023-12-12T11:29:14.109Z,5.45
2023-12-12T11:34:18.390Z,7.82
2023-12-12T11:39:30.351Z,6.57
2023-12-12T11:44:44.321Z,6.63
2023-12-12T11:49:49.240Z,9.07
2023-12-12T11:54:55.916Z,16.30
2023-12-12T12:00:04.377Z,6.78
2023-12-12T12:05:10.348Z,9.70
2023-12-12T12:10:14.430Z,9.50
2023-12-12T12:15:20.241Z,15.60
2023-12-12T12:20:24.306Z,12.90
2023-12-12T12:25:29.122Z,11.93
2023-12-12T12:30:47.453Z,11.02
2023-12-12T12:35:53.446Z,10.05
2023-12-12T12:40:57.920Z,10.10
2023-12-12T12:46:09.724Z,8.93
2023-12-12T12:51:14.542Z,8.77
2023-12-12T12:56:20.867Z,9.93
2023-12-12T13:01:26.632Z,11.65
2023-12-12T13:06:30.849Z,10.95
2023-12-12T13:11:34.954Z,10.77
2023-12-12T13:16:42.962Z,10.85
2023-12-12T13:21:49.921Z,12.13
2023-12-12T13:26:54.514Z,10.82
2023-12-12T13:32:00.230Z,13.13
2023-12-12T13:37:16.753Z,13.55
2023-12-12T13:42:21.013Z,14.80
2023-12-12T13:47:31.008Z,11.32
2023-12-12T13:52:35.458Z,14.02
2023-12-12T13:57:39.554Z,11.30
2023-12-12T14:02:45.202Z,11.70
2023-12-12T14:07:50.554Z,11.38
2023-12-12T14:12:54.793Z,10.80
2023-12-12T14:18:00.785Z,12.73
2023-12-12T14:23:10.913Z,15.73
2023-12-12T14:28:15.850Z,14.23
2023-12-12T14:33:21.544Z,13.00
2023-12-12T14:38:25.665Z,14.32
2023-12-12T14:43:30.091Z,9.65
2023-12-12T14:48:35.227Z,11.68
2023-12-12T14:53:39.402Z,11.93
2023-12-12T14:58:43.513Z,11.73
2023-12-12T15:03:49.412Z,12.82
2023-12-12T15:08:53.726Z,10.27
2023-12-12T15:13:57.966Z,15.18
2023-12-12T15:19:04.071Z,9.95
2023-12-12T15:24:09.368Z,11.68
2023-12-12T15:29:14.153Z,11.05
2023-12-12T15:34:19.711Z,13.95
2023-12-12T15:39:28.032Z,14.02
2023-12-12T15:44:32.318Z,13.55
2023-12-12T15:49:37.604Z,19.23
2023-12-12T15:54:41.649Z,16.27
2023-12-12T15:59:45.669Z,15.25
2023-12-12T16:04:51.206Z,14.60
2023-12-12T16:09:55.586Z,13.18
2023-12-12T16:14:59.728Z,16.20
2023-12-12T16:20:07.451Z,22.13
2023-12-12T16:25:12.740Z,29.60
2023-12-12T16:30:17.657Z,19.75
2023-12-12T16:35:25.015Z,17.77
2023-12-12T16:40:29.553Z,18.08
2023-12-12T16:45:33.802Z,20.45
2023-12-12T16:50:40.569Z,18.27
2023-12-12T16:55:45.081Z,19.67
2023-12-12T17:00:50.437Z,20.35
2023-12-12T17:05:55.974Z,20.67
2023-12-12T17:11:00.684Z,23.58
2023-12-12T17:16:05.871Z,20.73
2023-12-12T17:21:11.688Z,23.98
2023-12-12T17:26:15.813Z,25.40
2023-12-12T17:31:20.251Z,28.45
2023-12-12T17:36:26.213Z,23.45
2023-12-12T17:41:30.428Z,26.80
2023-12-12T17:46:34.487Z,32.95
2023-12-12T17:51:39.944Z,31.83
2023-12-12T17:56:43.783Z,26.67
2023-12-12T18:01:48.334Z,31.70
2023-12-12T18:06:57.027Z,25.98
2023-12-12T18:12:01.993Z,23.30
2023-12-12T18:17:08.753Z,28.95
2023-12-12T18:22:14.396Z,22.58
2023-12-12T18:27:18.989Z,22.55
2023-12-12T18:32:23.694Z,31.02
2023-12-12T18:37:30.661Z,26.75
2023-12-12T18:42:35.571Z,30.88
2023-12-12T18:47:39.919Z,30.67
2023-12-12T18:52:45.723Z,30.20
2023-12-12T18:57:49.950Z,34.28
2023-12-12T19:02:53.870Z,28.05
2023-12-12T19:08:00.844Z,29.02
2023-12-12T19:13:05.599Z,29.40
2023-12-12T19:18:10.354Z,37.20
2023-12-12T19:23:15.660Z,31.63
2023-12-12T19:28:19.645Z,35.00
2023-12-12T19:33:23.694Z,33.75
2023-12-12T19:38:28.932Z,31.02
2023-12-12T19:43:32.747Z,34.47
2023-12-12T19:48:37.364Z,33.13
2023-12-12T19:53:43.442Z,31.27
2023-12-12T19:58:47.664Z,29.92
2023-12-12T20:03:52.027Z,33.28
2023-12-12T20:08:57.222Z,29.50
2023-12-12T20:14:01.523Z,32.28
2023-12-12T20:19:05.760Z,29.52
2023-12-12T20:24:12.474Z,33.83
2023-12-12T20:29:16.706Z,35.78
2023-12-12T20:34:21.156Z,31.10
2023-12-12T20:39:27.156Z,29.35
2023-12-12T20:44:31.345Z,31.33
2023-12-12T20:49:35.434Z,32.90
2023-12-12T20:54:41.566Z,29.05
2023-12-12T20:59:45.884Z,34.22
2023-12-12T21:04:52.921Z,36.55
2023-12-12T21:10:00.320Z,38.45
2023-12-12T21:15:05.966Z,36.42
2023-12-12T21:20:11.301Z,39.88
2023-12-12T21:25:16.585Z,39.42
2023-12-12T21:30:21.817Z,45.65
2023-12-12T21:35:25.919Z,45.08
2023-12-12T21:40:31.342Z,46.80
2023-12-12T21:45:35.427Z,51.03
2023-12-12T21:50:40.475Z,47.65
2023-12-12T21:55:45.635Z,46.97
2023-12-12T22:00:49.752Z,46.50
2023-12-12T22:05:53.557Z,46.75
2023-12-12T22:10:58.845Z,51.70
2023-12-12T22:16:02.934Z,46.28
2023-12-12T22:21:07.588Z,52.00
2023-12-12T22:26:13.549Z,46.45
2023-12-12T22:31:18.037Z,54.50
2023-12-12T22:36:22.338Z,47.67
2023-12-12T22:41:27.642Z,51.20
2023-12-12T22:46:31.747Z,41.20
2023-12-12T22:51:35.883Z,53.72
2023-12-12T22:56:41.403Z,50.58
2023-12-12T23:01:45.668Z,55.47
2023-12-12T23:06:49.718Z,57.30
2023-12-12T23:11:55.236Z,59.58
2023-12-12T23:16:59.402Z,62.05
2023-12-12T23:22:03.618Z,64.47
2023-12-12T23:27:08.903Z,55.88
2023-12-12T23:32:13.732Z,99.43
2023-12-12T23:37:20.988Z,74.80
2023-12-12T23:42:26.566Z,77.88
2023-12-12T23:47:30.861Z,96.50
2023-12-12T23:52:35.261Z,79.35
2023-12-12T23:57:42.874Z,69.25
